sensor_id;sensor_type;location;lat;lon;timestamp;P1;durP1;ratioP1;P2;durP2;ratioP2
23490;SDS011;14683;50.038;8.078;2024-03-02T02:53:14;18.35;;;12.30;;
23490;SDS011;14683;50.038;8.078;2024-03-02T02:56:15;17.08;;;12.73;;
23490;SDS011;14683;50.038;8.078;2024-03-02T02:59:16;17.85;;;13.00;;
23490;SDS011;14683;50.038;8.078;2024-03-02T03:02:17;20.35;;;14.45;;
23490;SDS011;14683;50.038;8.078;2024-03-02T03:05:18;15.80;;;12.63;;
23490;SDS011;14683;50.038;8.078;2024-03-02T03:08:20;16.77;;;12.07;;
23490;SDS011;14683;50.038;8.078;2024-03-02T03:11:24;19.02;;;12.43;;
23490;SDS011;14683;50.038;8.078;2024-03-02T03:14:27;15.70;;;11.88;;
23490;SDS011;14683;50.038;8.078;2024-03-02T03:17:28;14.48;;;11.40;;
23490;SDS011;14683;50.038;8.078;2024-03-02T03:20:29;14.05;;;11.20;;
23490;SDS011;14683;50.038;8.078;2024-03-02T03:23:31;17.17;;;11.77;;
23490;SDS011;14683;50.038;8.078;2024-03-02T03:26:32;14.32;;;11.15;;
23490;SDS011;14683;50.038;8.078;2024-03-02T03:29:37;15.75;;;12.02;;
23490;SDS011;14683;50.038;8.078;2024-03-02T03:32:38;14.95;;;11.98;;
23490;SDS011;14683;50.038;8.078;2024-03-02T03:35:42;14.57;;;11.15;;
23490;SDS011;14683;50.038;8.078;2024-03-02T03:38:43;15.18;;;12.48;;
23490;SDS011;14683;50.038;8.078;2024-03-02T03:41:44;15.85;;;12.15;;
23490;SDS011;14683;50.038;8.078;2024-03-02T03:44:46;15.32;;;12.07;;
23490;SDS011;14683;50.038;8.078;2024-03-02T03:47:47;17.30;;;12.98;;
23490;SDS011;14683;50.038;8.078;2024-03-02T03:50:48;17.90;;;13.18;;
23490;SDS011;14683;50.038;8.078;2024-03-02T03:53:49;16.85;;;13.15;;
23490;SDS011;14683;50.038;8.078;2024-03-02T03:56:50;18.10;;;13.25;;
23490;SDS011;14683;50.038;8.078;2024-03-02T03:59:51;17.15;;;13.65;;
23490;SDS011;14683;50.038;8.078;2024-03-02T04:02:53;19.02;;;14.02;;
23490;SDS011;14683;50.038;8.078;2024-03-02T04:05:54;19.77;;;13.70;;
23490;SDS011;14683;50.038;8.078;2024-03-02T04:08:55;19.33;;;13.77;;
23490;SDS011;14683;50.038;8.078;2024-03-02T04:11:56;20.38;;;13.98;;
23490;SDS011;14683;50.038;8.078;2024-03-02T04:14:57;20.50;;;13.88;;
23490;SDS011;14683;50.038;8.078;2024-03-02T04:17:58;19.02;;;14.55;;
23490;SDS011;14683;50.038;8.078;2024-03-02T04:20:59;18.70;;;13.82;;
23490;SDS011;14683;50.038;8.078;2024-03-02T04:24:00;21.45;;;13.90;;
23490;SDS011;14683;50.038;8.078;2024-03-02T04:27:02;20.05;;;13.75;;
23490;SDS011;14683;50.038;8.078;2024-03-02T04:30:03;18.65;;;14.02;;
23490;SDS011;14683;50.038;8.078;2024-03-02T04:33:07;18.75;;;14.90;;
23490;SDS011;14683;50.038;8.078;2024-03-02T04:36:10;18.42;;;13.55;;
23490;SDS011;14683;50.038;8.078;2024-03-02T04:39:11;19.58;;;14.65;;
23490;SDS011;14683;50.038;8.078;2024-03-02T04:42:12;20.48;;;14.35;;
23490;SDS011;14683;50.038;8.078;2024-03-02T04:45:14;20.20;;;14.38;;
23490;SDS011;14683;50.038;8.078;2024-03-02T04:48:15;9.43;;;7.18;;
23490;SDS011;14683;50.038;8.078;2024-03-02T04:51:16;19.35;;;14.60;;
23490;SDS011;14683;50.038;8.078;2024-03-02T04:54:17;21.80;;;14.52;;
23490;SDS011;14683;50.038;8.078;2024-03-02T04:57:19;19.08;;;13.95;;
23490;SDS011;14683;50.038;8.078;2024-03-02T05:00:20;20.38;;;13.88;;
23490;SDS011;14683;50.038;8.078;2024-03-02T05:03:21;19.35;;;13.85;;
23490;SDS011;14683;50.038;8.078;2024-03-02T05:06:22;17.88;;;13.13;;
23490;SDS011;14683;50.038;8.078;2024-03-02T05:09:24;19.15;;;13.57;;
23490;SDS011;14683;50.038;8.078;2024-03-02T05:12:25;19.38;;;13.52;;
23490;SDS011;14683;50.038;8.078;2024-03-02T05:15:44;19.13;;;13.57;;
23490;SDS011;14683;50.038;8.078;2024-03-02T05:18:46;18.13;;;13.77;;
23490;SDS011;14683;50.038;8.078;2024-03-02T05:21:47;16.85;;;13.73;;
23490;SDS011;14683;50.038;8.078;2024-03-02T05:24:49;17.23;;;13.63;;
23490;SDS011;14683;50.038;8.078;2024-03-02T05:27:50;19.45;;;13.68;;
23490;SDS011;14683;50.038;8.078;2024-03-02T05:30:51;17.60;;;13.80;;
23490;SDS011;14683;50.038;8.078;2024-03-02T05:33:52;19.10;;;15.02;;
23490;SDS011;14683;50.038;8.078;2024-03-02T05:36:53;18.27;;;13.95;;
23490;SDS011;14683;50.038;8.078;2024-03-02T05:39:55;17.60;;;13.10;;
23490;SDS011;14683;50.038;8.078;2024-03-02T05:42:56;18.02;;;13.75;;
23490;SDS011;14683;50.038;8.078;2024-03-02T05:45:57;16.23;;;12.45;;
23490;SDS011;14683;50.038;8.078;2024-03-02T05:48:59;17.50;;;12.63;;
23490;SDS011;14683;50.038;8.078;2024-03-02T05:52:01;17.75;;;13.35;;
23490;SDS011;14683;50.038;8.078;2024-03-02T05:55:02;21.27;;;14.98;;
23490;SDS011;14683;50.038;8.078;2024-03-02T05:58:03;21.17;;;15.75;;
23490;SDS011;14683;50.038;8.078;2024-03-02T06:01:07;17.98;;;13.65;;
23490;SDS011;14683;50.038;8.078;2024-03-02T06:04:11;17.35;;;12.90;;
23490;SDS011;14683;50.038;8.078;2024-03-02T06:07:12;15.98;;;12.15;;
23490;SDS011;14683;50.038;8.078;2024-03-02T06:10:13;15.05;;;12.43;;
23490;SDS011;14683;50.038;8.078;2024-03-02T06:13:15;17.05;;;12.70;;
23490;SDS011;14683;50.038;8.078;2024-03-02T06:16:16;16.80;;;12.55;;
23490;SDS011;14683;50.038;8.078;2024-03-02T06:19:17;14.05;;;11.00;;
23490;SDS011;14683;50.038;8.078;2024-03-02T06:22:18;16.77;;;12.30;;
23490;SDS011;14683;50.038;8.078;2024-03-02T06:25:20;15.30;;;12.48;;
23490;SDS011;14683;50.038;8.078;2024-03-02T06:28:21;15.95;;;13.10;;
23490;SDS011;14683;50.038;8.078;2024-03-02T06:31:22;16.42;;;12.52;;
23490;SDS011;14683;50.038;8.078;2024-03-02T06:34:23;15.55;;;11.90;;
23490;SDS011;14683;50.038;8.078;2024-03-02T06:37:24;18.17;;;12.88;;
23490;SDS011;14683;50.038;8.078;2024-03-02T06:40:26;18.88;;;13.93;;
23490;SDS011;14683;50.038;8.078;2024-03-02T06:43:27;19.27;;;14.38;;
23490;SDS011;14683;50.038;8.078;2024-03-02T06:46:28;18.33;;;13.52;;
23490;SDS011;14683;50.038;8.078;2024-03-02T06:49:29;17.80;;;13.43;;
23490;SDS011;14683;50.038;8.078;2024-03-02T06:52:31;17.02;;;12.82;;
23490;SDS011;14683;50.038;8.078;2024-03-02T06:55:32;17.55;;;13.25;;
23490;SDS011;14683;50.038;8.078;2024-03-02T06:58:33;15.30;;;12.60;;
23490;SDS011;14683;50.038;8.078;2024-03-02T07:01:34;18.92;;;12.63;;
23490;SDS011;14683;50.038;8.078;2024-03-02T07:04:35;16.85;;;12.43;;
23490;SDS011;14683;50.038;8.078;2024-03-02T07:07:36;16.67;;;12.57;;
23490;SDS011;14683;50.038;8.078;2024-03-02T07:10:38;15.70;;;12.02;;
23490;SDS011;14683;50.038;8.078;2024-03-02T07:13:39;18.58;;;13.32;;
23490;SDS011;14683;50.038;8.078;2024-03-02T07:16:40;16.73;;;12.73;;
23490;SDS011;14683;50.038;8.078;2024-03-02T07:19:41;17.27;;;13.25;;
23490;SDS011;14683;50.038;8.078;2024-03-02T07:22:42;17.45;;;13.95;;
23490;SDS011;14683;50.038;8.078;2024-03-02T07:25:44;17.23;;;13.13;;
23490;SDS011;14683;50.038;8.078;2024-03-02T07:28:48;18.88;;;13.68;;
23490;SDS011;14683;50.038;8.078;2024-03-02T07:31:49;18.13;;;12.80;;
23490;SDS011;14683;50.038;8.078;2024-03-02T07:34:54;16.95;;;12.63;;
23490;SDS011;14683;50.038;8.078;2024-03-02T07:37:56;18.77;;;13.02;;
23490;SDS011;14683;50.038;8.078;2024-03-02T07:40:57;20.08;;;13.60;;
23490;SDS011;14683;50.038;8.078;2024-03-02T07:43:58;21.17;;;14.52;;
23490;SDS011;14683;50.038;8.078;2024-03-02T07:46:59;18.13;;;13.20;;
23490;SDS011;14683;50.038;8.078;2024-03-02T07:50:01;19.75;;;13.77;;
23490;SDS011;14683;50.038;8.078;2024-03-02T07:53:02;19.00;;;13.80;;
23490;SDS011;14683;50.038;8.078;2024-03-02T07:56:04;17.23;;;13.20;;
23490;SDS011;14683;50.038;8.078;2024-03-02T07:59:06;16.98;;;11.57;;
23490;SDS011;14683;50.038;8.078;2024-03-02T08:02:08;19.23;;;12.15;;
23490;SDS011;14683;50.038;8.078;2024-03-02T08:05:09;15.75;;;12.32;;
23490;SDS011;14683;50.038;8.078;2024-03-02T08:08:12;19.30;;;12.73;;
23490;SDS011;14683;50.038;8.078;2024-03-02T08:11:13;14.88;;;12.20;;
23490;SDS011;14683;50.038;8.078;2024-03-02T08:14:14;17.08;;;12.60;;
23490;SDS011;14683;50.038;8.078;2024-03-02T08:17:16;15.93;;;11.77;;
23490;SDS011;14683;50.038;8.078;2024-03-02T08:20:17;18.40;;;13.20;;
23490;SDS011;14683;50.038;8.078;2024-03-02T08:23:18;6.30;;;5.35;;
23490;SDS011;14683;50.038;8.078;2024-03-02T08:26:19;18.15;;;12.43;;
23490;SDS011;14683;50.038;8.078;2024-03-02T08:29:20;17.67;;;12.63;;
23490;SDS011;14683;50.038;8.078;2024-03-02T08:32:22;15.70;;;11.55;;
23490;SDS011;14683;50.038;8.078;2024-03-02T08:35:23;12.45;;;10.70;;
23490;SDS011;14683;50.038;8.078;2024-03-02T08:38:24;16.50;;;11.55;;
23490;SDS011;14683;50.038;8.078;2024-03-02T08:41:25;14.50;;;11.65;;
23490;SDS011;14683;50.038;8.078;2024-03-02T08:44:27;14.95;;;12.25;;
23490;SDS011;14683;50.038;8.078;2024-03-02T08:47:28;15.80;;;12.02;;
23490;SDS011;14683;50.038;8.078;2024-03-02T08:50:29;23.15;;;13.60;;
23490;SDS011;14683;50.038;8.078;2024-03-02T08:53:30;19.63;;;13.68;;
23490;SDS011;14683;50.038;8.078;2024-03-02T08:56:31;19.15;;;13.30;;
23490;SDS011;14683;50.038;8.078;2024-03-02T08:59:32;18.23;;;13.20;;
23490;SDS011;14683;50.038;8.078;2024-03-02T09:02:34;15.80;;;12.63;;
23490;SDS011;14683;50.038;8.078;2024-03-02T09:05:35;20.15;;;13.95;;
23490;SDS011;14683;50.038;8.078;2024-03-02T09:08:36;17.88;;;13.20;;
23490;SDS011;14683;50.038;8.078;2024-03-02T09:11:39;16.65;;;13.25;;
23490;SDS011;14683;50.038;8.078;2024-03-02T09:14:40;16.33;;;13.15;;
23490;SDS011;14683;50.038;8.078;2024-03-02T09:17:41;16.08;;;12.57;;
23490;SDS011;14683;50.038;8.078;2024-03-02T09:20:42;20.05;;;13.00;;
23490;SDS011;14683;50.038;8.078;2024-03-02T09:23:43;15.75;;;12.40;;
23490;SDS011;14683;50.038;8.078;2024-03-02T09:26:46;17.23;;;12.82;;
23490;SDS011;14683;50.038;8.078;2024-03-02T09:29:47;16.48;;;12.85;;
23490;SDS011;14683;50.038;8.078;2024-03-02T09:32:48;17.83;;;13.70;;
23490;SDS011;14683;50.038;8.078;2024-03-02T09:35:50;16.98;;;12.50;;
23490;SDS011;14683;50.038;8.078;2024-03-02T09:38:51;21.38;;;14.20;;
23490;SDS011;14683;50.038;8.078;2024-03-02T09:41:52;17.77;;;13.52;;
23490;SDS011;14683;50.038;8.078;2024-03-02T09:44:54;24.73;;;18.35;;
23490;SDS011;14683;50.038;8.078;2024-03-02T09:47:55;17.08;;;14.40;;
23490;SDS011;14683;50.038;8.078;2024-03-02T09:50:57;19.98;;;13.77;;
23490;SDS011;14683;50.038;8.078;2024-03-02T09:53:58;18.73;;;15.63;;
23490;SDS011;14683;50.038;8.078;2024-03-02T09:57:02;17.50;;;13.10;;
23490;SDS011;14683;50.038;8.078;2024-03-02T10:00:03;18.40;;;14.00;;
23490;SDS011;14683;50.038;8.078;2024-03-02T10:03:11;18.95;;;13.68;;
23490;SDS011;14683;50.038;8.078;2024-03-02T10:06:23;17.42;;;13.30;;
23490;SDS011;14683;50.038;8.078;2024-03-02T10:09:28;20.02;;;15.55;;
23490;SDS011;14683;50.038;8.078;2024-03-02T10:12:29;16.27;;;13.23;;
23490;SDS011;14683;50.038;8.078;2024-03-02T10:15:30;18.58;;;13.23;;
23490;SDS011;14683;50.038;8.078;2024-03-02T10:18:32;15.63;;;12.02;;
23490;SDS011;14683;50.038;8.078;2024-03-02T10:21:33;17.23;;;12.95;;
23490;SDS011;14683;50.038;8.078;2024-03-02T10:24:41;15.57;;;11.70;;
23490;SDS011;14683;50.038;8.078;2024-03-02T10:27:45;16.65;;;12.43;;
23490;SDS011;14683;50.038;8.078;2024-03-02T10:30:51;15.23;;;11.57;;
23490;SDS011;14683;50.038;8.078;2024-03-02T10:33:57;19.70;;;14.57;;
23490;SDS011;14683;50.038;8.078;2024-03-02T10:36:59;17.58;;;12.75;;
23490;SDS011;14683;50.038;8.078;2024-03-02T10:40:04;19.48;;;13.02;;
23490;SDS011;14683;50.038;8.078;2024-03-02T10:43:06;19.33;;;13.77;;
23490;SDS011;14683;50.038;8.078;2024-03-02T10:46:08;16.17;;;11.70;;
23490;SDS011;14683;50.038;8.078;2024-03-02T10:49:09;15.77;;;11.88;;
23490;SDS011;14683;50.038;8.078;2024-03-02T10:52:10;17.58;;;12.00;;
23490;SDS011;14683;50.038;8.078;2024-03-02T10:55:11;16.13;;;11.60;;
23490;SDS011;14683;50.038;8.078;2024-03-02T10:58:13;14.45;;;11.95;;
23490;SDS011;14683;50.038;8.078;2024-03-02T11:01:15;14.05;;;11.27;;
23490;SDS011;14683;50.038;8.078;2024-03-02T11:04:18;13.57;;;11.38;;
23490;SDS011;14683;50.038;8.078;2024-03-02T11:07:19;14.05;;;11.20;;
23490;SDS011;14683;50.038;8.078;2024-03-02T11:10:22;16.00;;;12.00;;
23490;SDS011;14683;50.038;8.078;2024-03-02T11:13:42;18.55;;;12.18;;
23490;SDS011;14683;50.038;8.078;2024-03-02T11:16:48;14.27;;;11.60;;
23490;SDS011;14683;50.038;8.078;2024-03-02T11:19:49;14.77;;;12.02;;
23490;SDS011;14683;50.038;8.078;2024-03-02T11:22:50;13.38;;;11.23;;
23490;SDS011;14683;50.038;8.078;2024-03-02T11:25:52;13.40;;;10.60;;
23490;SDS011;14683;50.038;8.078;2024-03-02T11:28:53;13.82;;;10.80;;
23490;SDS011;14683;50.038;8.078;2024-03-02T11:31:58;14.75;;;11.05;;
23490;SDS011;14683;50.038;8.078;2024-03-02T11:35:02;13.57;;;11.13;;
23490;SDS011;14683;50.038;8.078;2024-03-02T11:38:04;15.27;;;10.45;;
23490;SDS011;14683;50.038;8.078;2024-03-02T11:41:06;12.27;;;10.23;;
23490;SDS011;14683;50.038;8.078;2024-03-02T11:44:11;14.02;;;10.30;;
23490;SDS011;14683;50.038;8.078;2024-03-02T11:47:16;13.05;;;10.35;;
23490;SDS011;14683;50.038;8.078;2024-03-02T11:53:32;11.05;;;8.93;;
23490;SDS011;14683;50.038;8.078;2024-03-02T11:56:34;10.85;;;9.00;;
23490;SDS011;14683;50.038;8.078;2024-03-02T11:59:35;12.07;;;8.70;;
23490;SDS011;14683;50.038;8.078;2024-03-02T12:02:36;12.07;;;9.00;;
23490;SDS011;14683;50.038;8.078;2024-03-02T12:05:38;10.05;;;7.63;;
23490;SDS011;14683;50.038;8.078;2024-03-02T12:08:40;10.30;;;8.50;;
23490;SDS011;14683;50.038;8.078;2024-03-02T12:11:41;9.75;;;8.00;;
23490;SDS011;14683;50.038;8.078;2024-03-02T12:14:49;8.82;;;7.72;;
23490;SDS011;14683;50.038;8.078;2024-03-02T12:17:56;12.52;;;9.20;;
23490;SDS011;14683;50.038;8.078;2024-03-02T12:20:58;13.80;;;10.35;;
23490;SDS011;14683;50.038;8.078;2024-03-02T12:23:59;12.57;;;10.20;;
23490;SDS011;14683;50.038;8.078;2024-03-02T12:27:01;10.32;;;8.20;;
23490;SDS011;14683;50.038;8.078;2024-03-02T12:30:02;8.85;;;7.30;;
23490;SDS011;14683;50.038;8.078;2024-03-02T12:33:04;9.93;;;7.22;;
23490;SDS011;14683;50.038;8.078;2024-03-02T12:36:09;9.07;;;7.60;;
23490;SDS011;14683;50.038;8.078;2024-03-02T12:39:10;7.07;;;6.32;;
23490;SDS011;14683;50.038;8.078;2024-03-02T12:42:11;9.38;;;7.43;;
23490;SDS011;14683;50.038;8.078;2024-03-02T12:45:12;10.60;;;8.15;;
23490;SDS011;14683;50.038;8.078;2024-03-02T12:48:14;8.65;;;7.30;;
23490;SDS011;14683;50.038;8.078;2024-03-02T12:51:15;8.20;;;7.30;;
23490;SDS011;14683;50.038;8.078;2024-03-02T12:54:17;7.60;;;6.82;;
23490;SDS011;14683;50.038;8.078;2024-03-02T12:57:18;7.38;;;6.55;;
23490;SDS011;14683;50.038;8.078;2024-03-02T13:00:20;7.90;;;6.38;;
23490;SDS011;14683;50.038;8.078;2024-03-02T13:03:21;8.70;;;6.68;;
23490;SDS011;14683;50.038;8.078;2024-03-02T13:06:24;7.38;;;6.35;;
23490;SDS011;14683;50.038;8.078;2024-03-02T13:09:28;10.75;;;7.05;;
23490;SDS011;14683;50.038;8.078;2024-03-02T13:12:30;7.32;;;6.18;;
23490;SDS011;14683;50.038;8.078;2024-03-02T13:15:32;6.28;;;5.68;;
23490;SDS011;14683;50.038;8.078;2024-03-02T13:18:34;9.93;;;6.57;;
23490;SDS011;14683;50.038;8.078;2024-03-02T13:21:36;8.18;;;6.18;;
23490;SDS011;14683;50.038;8.078;2024-03-02T13:24:37;6.43;;;5.80;;
23490;SDS011;14683;50.038;8.078;2024-03-02T13:27:38;6.43;;;5.65;;
23490;SDS011;14683;50.038;8.078;2024-03-02T13:30:39;6.68;;;5.90;;
23490;SDS011;14683;50.038;8.078;2024-03-02T13:33:41;5.63;;;4.85;;
23490;SDS011;14683;50.038;8.078;2024-03-02T13:36:42;7.47;;;5.50;;
23490;SDS011;14683;50.038;8.078;2024-03-02T13:39:43;5.25;;;4.75;;
23490;SDS011;14683;50.038;8.078;2024-03-02T13:42:44;6.50;;;5.18;;
23490;SDS011;14683;50.038;8.078;2024-03-02T13:45:47;7.63;;;5.93;;
23490;SDS011;14683;50.038;8.078;2024-03-02T13:48:48;6.03;;;5.38;;
23490;SDS011;14683;50.038;8.078;2024-03-02T13:51:49;7.93;;;5.18;;
23490;SDS011;14683;50.038;8.078;2024-03-02T13:54:51;6.18;;;5.07;;
23490;SDS011;14683;50.038;8.078;2024-03-02T13:57:53;6.75;;;4.53;;
23490;SDS011;14683;50.038;8.078;2024-03-02T14:00:54;4.85;;;4.22;;
23490;SDS011;14683;50.038;8.078;2024-03-02T14:03:57;5.63;;;3.80;;
23490;SDS011;14683;50.038;8.078;2024-03-02T14:06:58;5.07;;;4.00;;
23490;SDS011;14683;50.038;8.078;2024-03-02T14:09:59;4.75;;;3.75;;
23490;SDS011;14683;50.038;8.078;2024-03-02T14:13:01;3.83;;;3.53;;
23490;SDS011;14683;50.038;8.078;2024-03-02T14:16:02;3.92;;;3.53;;
23490;SDS011;14683;50.038;8.078;2024-03-02T14:19:03;4.30;;;3.90;;
23490;SDS011;14683;50.038;8.078;2024-03-02T14:22:05;4.30;;;3.90;;
23490;SDS011;14683;50.038;8.078;2024-03-02T14:25:06;4.90;;;4.40;;
23490;SDS011;14683;50.038;8.078;2024-03-02T14:28:07;5.07;;;4.20;;
23490;SDS011;14683;50.038;8.078;2024-03-02T14:31:08;5.78;;;4.35;;
23490;SDS011;14683;50.038;8.078;2024-03-02T14:34:09;5.50;;;4.70;;
23490;SDS011;14683;50.038;8.078;2024-03-02T14:37:11;5.43;;;4.35;;
23490;SDS011;14683;50.038;8.078;2024-03-02T14:40:12;5.28;;;4.28;;
23490;SDS011;14683;50.038;8.078;2024-03-02T14:43:13;4.22;;;3.15;;
23490;SDS011;14683;50.038;8.078;2024-03-02T14:46:15;2.42;;;2.00;;
23490;SDS011;14683;50.038;8.078;2024-03-02T14:49:16;1.90;;;1.80;;
23490;SDS011;14683;50.038;8.078;2024-03-02T14:52:18;4.13;;;3.15;;
23490;SDS011;14683;50.038;8.078;2024-03-02T14:55:19;3.65;;;3.30;;
23490;SDS011;14683;50.038;8.078;2024-03-02T14:58:20;5.05;;;3.22;;
23490;SDS011;14683;50.038;8.078;2024-03-02T15:01:21;3.80;;;3.03;;
23490;SDS011;14683;50.038;8.078;2024-03-02T15:04:24;3.83;;;3.40;;
23490;SDS011;14683;50.038;8.078;2024-03-02T15:07:25;3.70;;;3.10;;
23490;SDS011;14683;50.038;8.078;2024-03-02T15:10:26;3.55;;;3.25;;
23490;SDS011;14683;50.038;8.078;2024-03-02T15:13:28;3.53;;;3.22;;
23490;SDS011;14683;50.038;8.078;2024-03-02T15:16:29;3.22;;;2.90;;
23490;SDS011;14683;50.038;8.078;2024-03-02T15:19:30;3.92;;;3.05;;
23490;SDS011;14683;50.038;8.078;2024-03-02T15:22:32;3.55;;;2.75;;
23490;SDS011;14683;50.038;8.078;2024-03-02T15:25:33;3.00;;;2.72;;
23490;SDS011;14683;50.038;8.078;2024-03-02T15:28:34;2.78;;;2.58;;
23490;SDS011;14683;50.038;8.078;2024-03-02T15:31:36;2.95;;;2.63;;
23490;SDS011;14683;50.038;8.078;2024-03-02T15:34:37;3.63;;;3.20;;
23490;SDS011;14683;50.038;8.078;2024-03-02T15:37:38;3.70;;;3.20;;
23490;SDS011;14683;50.038;8.078;2024-03-02T15:40:39;4.53;;;3.78;;
23490;SDS011;14683;50.038;8.078;2024-03-02T15:43:40;5.00;;;3.20;;
23490;SDS011;14683;50.038;8.078;2024-03-02T15:46:43;2.90;;;2.65;;
23490;SDS011;14683;50.038;8.078;2024-03-02T15:49:44;3.10;;;2.80;;
23490;SDS011;14683;50.038;8.078;2024-03-02T15:52:45;5.20;;;3.53;;
23490;SDS011;14683;50.038;8.078;2024-03-02T15:55:47;4.32;;;3.60;;
23490;SDS011;14683;50.038;8.078;2024-03-02T15:58:49;2.70;;;2.50;;
23490;SDS011;14683;50.038;8.078;2024-03-02T16:01:50;4.10;;;2.78;;
23490;SDS011;14683;50.038;8.078;2024-03-02T16:04:51;2.90;;;2.65;;
23490;SDS011;14683;50.038;8.078;2024-03-02T16:07:52;3.28;;;2.97;;
23490;SDS011;14683;50.038;8.078;2024-03-02T16:10:53;2.90;;;2.65;;
23490;SDS011;14683;50.038;8.078;2024-03-02T16:13:55;2.67;;;2.47;;
23490;SDS011;14683;50.038;8.078;2024-03-02T16:16:57;3.15;;;2.85;;
23490;SDS011;14683;50.038;8.078;2024-03-02T16:19:59;3.90;;;3.00;;
23490;SDS011;14683;50.038;8.078;2024-03-02T16:23:00;4.28;;;3.40;;
23490;SDS011;14683;50.038;8.078;2024-03-02T16:26:01;3.47;;;2.70;;
23490;SDS011;14683;50.038;8.078;2024-03-02T16:29:02;3.95;;;3.10;;
23490;SDS011;14683;50.038;8.078;2024-03-02T16:32:04;2.83;;;2.55;;
23490;SDS011;14683;50.038;8.078;2024-03-02T16:35:07;3.53;;;3.22;;
23490;SDS011;14683;50.038;8.078;2024-03-02T16:38:08;5.30;;;4.28;;
23490;SDS011;14683;50.038;8.078;2024-03-02T16:41:11;4.97;;;4.40;;
23490;SDS011;14683;50.038;8.078;2024-03-02T16:44:12;5.82;;;5.22;;
23490;SDS011;14683;50.038;8.078;2024-03-02T16:47:14;6.10;;;5.47;;
23490;SDS011;14683;50.038;8.078;2024-03-02T16:50:16;5.13;;;4.63;;
23490;SDS011;14683;50.038;8.078;2024-03-02T16:53:17;7.43;;;4.32;;
23490;SDS011;14683;50.038;8.078;2024-03-02T16:56:18;5.75;;;4.45;;
23490;SDS011;14683;50.038;8.078;2024-03-02T16:59:19;5.35;;;4.43;;
23490;SDS011;14683;50.038;8.078;2024-03-02T17:02:21;7.47;;;4.75;;
23490;SDS011;14683;50.038;8.078;2024-03-02T17:05:22;8.23;;;5.03;;
23490;SDS011;14683;50.038;8.078;2024-03-02T17:08:23;6.57;;;4.88;;
23490;SDS011;14683;50.038;8.078;2024-03-02T17:11:24;7.55;;;4.55;;
23490;SDS011;14683;50.038;8.078;2024-03-02T17:14:26;9.07;;;5.10;;
23490;SDS011;14683;50.038;8.078;2024-03-02T17:17:27;5.03;;;4.60;;
23490;SDS011;14683;50.038;8.078;2024-03-02T17:20:28;8.23;;;5.43;;
23490;SDS011;14683;50.038;8.078;2024-03-02T17:23:29;6.70;;;5.65;;
23490;SDS011;14683;50.038;8.078;2024-03-02T17:26:31;8.30;;;5.03;;
23490;SDS011;14683;50.038;8.078;2024-03-02T17:29:32;7.28;;;5.65;;
23490;SDS011;14683;50.038;8.078;2024-03-02T17:32:35;8.75;;;6.97;;
23490;SDS011;14683;50.038;8.078;2024-03-02T17:35:36;8.90;;;6.40;;
23490;SDS011;14683;50.038;8.078;2024-03-02T17:38:37;11.07;;;7.60;;
23490;SDS011;14683;50.038;8.078;2024-03-02T17:41:38;7.45;;;6.68;;
23490;SDS011;14683;50.038;8.078;2024-03-02T17:44:39;8.05;;;6.30;;
23490;SDS011;14683;50.038;8.078;2024-03-02T17:47:41;8.45;;;6.05;;
23490;SDS011;14683;50.038;8.078;2024-03-02T17:50:42;7.53;;;6.25;;
23490;SDS011;14683;50.038;8.078;2024-03-02T17:53:43;8.00;;;6.43;;
23490;SDS011;14683;50.038;8.078;2024-03-02T17:56:44;10.50;;;6.95;;
23490;SDS011;14683;50.038;8.078;2024-03-02T17:59:45;11.25;;;9.15;;
23490;SDS011;14683;50.038;8.078;2024-03-02T18:02:47;13.38;;;8.65;;
23490;SDS011;14683;50.038;8.078;2024-03-02T18:05:48;10.35;;;8.10;;
23490;SDS011;14683;50.038;8.078;2024-03-02T18:08:49;12.85;;;9.98;;
23490;SDS011;14683;50.038;8.078;2024-03-02T18:11:51;14.30;;;10.13;;
23490;SDS011;14683;50.038;8.078;2024-03-02T18:14:52;12.68;;;7.70;;
23490;SDS011;14683;50.038;8.078;2024-03-02T18:17:53;9.48;;;6.20;;
23490;SDS011;14683;50.038;8.078;2024-03-02T18:20:54;7.38;;;5.57;;
23490;SDS011;14683;50.038;8.078;2024-03-02T18:23:55;7.15;;;5.80;;
23490;SDS011;14683;50.038;8.078;2024-03-02T18:26:56;6.53;;;5.20;;
23490;SDS011;14683;50.038;8.078;2024-03-02T18:29:57;6.90;;;5.63;;
23490;SDS011;14683;50.038;8.078;2024-03-02T18:32:59;6.63;;;5.55;;
23490;SDS011;14683;50.038;8.078;2024-03-02T18:36:00;7.53;;;6.28;;
23490;SDS011;14683;50.038;8.078;2024-03-02T18:39:01;8.15;;;6.03;;
23490;SDS011;14683;50.038;8.078;2024-03-02T18:42:02;7.50;;;5.90;;
23490;SDS011;14683;50.038;8.078;2024-03-02T18:45:05;6.35;;;5.22;;
23490;SDS011;14683;50.038;8.078;2024-03-02T18:48:07;6.93;;;5.45;;
23490;SDS011;14683;50.038;8.078;2024-03-02T18:51:08;7.07;;;6.30;;
23490;SDS011;14683;50.038;8.078;2024-03-02T18:54:09;7.55;;;6.82;;
23490;SDS011;14683;50.038;8.078;2024-03-02T18:57:12;10.25;;;6.82;;
23490;SDS011;14683;50.038;8.078;2024-03-02T19:00:13;8.20;;;6.25;;
23490;SDS011;14683;50.038;8.078;2024-03-02T19:03:15;21.92;;;19.25;;
23490;SDS011;14683;50.038;8.078;2024-03-02T19:06:16;22.27;;;16.85;;
23490;SDS011;14683;50.038;8.078;2024-03-02T19:09:17;15.93;;;12.70;;
23490;SDS011;14683;50.038;8.078;2024-03-02T19:12:18;17.38;;;12.00;;
23490;SDS011;14683;50.038;8.078;2024-03-02T19:15:19;13.90;;;10.73;;
23490;SDS011;14683;50.038;8.078;2024-03-02T19:18:21;9.85;;;7.53;;
23490;SDS011;14683;50.038;8.078;2024-03-02T19:21:22;9.57;;;7.00;;
23490;SDS011;14683;50.038;8.078;2024-03-02T19:24:23;8.73;;;7.32;;
23490;SDS011;14683;50.038;8.078;2024-03-02T19:27:24;9.15;;;8.00;;
23490;SDS011;14683;50.038;8.078;2024-03-02T19:30:25;8.60;;;7.65;;
23490;SDS011;14683;50.038;8.078;2024-03-02T19:33:27;9.45;;;7.50;;
23490;SDS011;14683;50.038;8.078;2024-03-02T19:36:28;8.57;;;7.05;;
23490;SDS011;14683;50.038;8.078;2024-03-02T19:39:30;9.70;;;7.30;;
23490;SDS011;14683;50.038;8.078;2024-03-02T19:42:31;9.65;;;7.13;;
23490;SDS011;14683;50.038;8.078;2024-03-02T19:45:34;7.70;;;6.45;;
23490;SDS011;14683;50.038;8.078;2024-03-02T19:48:35;8.77;;;6.32;;
23490;SDS011;14683;50.038;8.078;2024-03-02T19:51:36;8.63;;;7.03;;
23490;SDS011;14683;50.038;8.078;2024-03-02T19:54:37;9.20;;;7.57;;
23490;SDS011;14683;50.038;8.078;2024-03-02T19:57:39;12.30;;;8.38;;
23490;SDS011;14683;50.038;8.078;2024-03-02T20:00:45;12.88;;;9.07;;
23490;SDS011;14683;50.038;8.078;2024-03-02T20:03:46;11.75;;;8.00;;
23490;SDS011;14683;50.038;8.078;2024-03-02T20:06:51;12.85;;;8.70;;
23490;SDS011;14683;50.038;8.078;2024-03-02T20:09:52;10.50;;;7.78;;
23490;SDS011;14683;50.038;8.078;2024-03-02T20:12:55;8.45;;;6.75;;
23490;SDS011;14683;50.038;8.078;2024-03-02T20:15:56;8.05;;;6.93;;
23490;SDS011;14683;50.038;8.078;2024-03-02T20:18:57;7.70;;;5.72;;
23490;SDS011;14683;50.038;8.078;2024-03-02T20:21:58;6.57;;;5.95;;
23490;SDS011;14683;50.038;8.078;2024-03-02T20:24:59;7.45;;;5.57;;
23490;SDS011;14683;50.038;8.078;2024-03-02T20:28:01;6.75;;;6.07;;
23490;SDS011;14683;50.038;8.078;2024-03-02T20:31:02;7.93;;;5.55;;
23490;SDS011;14683;50.038;8.078;2024-03-02T20:34:03;7.13;;;6.00;;
23490;SDS011;14683;50.038;8.078;2024-03-02T20:37:04;8.43;;;7.50;;
23490;SDS011;14683;50.038;8.078;2024-03-02T20:40:06;8.02;;;6.45;;
23490;SDS011;14683;50.038;8.078;2024-03-02T20:43:07;6.95;;;6.13;;
23490;SDS011;14683;50.038;8.078;2024-03-02T20:46:09;9.10;;;5.93;;
23490;SDS011;14683;50.038;8.078;2024-03-02T20:49:10;5.85;;;5.22;;
